createdAt,value
2023-01-20T00:01:46.604Z,3.60
2023-01-20T00:04:15.051Z,3.60
2023-01-20T00:06:41.774Z,2.40
2023-01-20T00:09:09.388Z,2.90
2023-01-20T00:11:36.055Z,3.00
2023-01-20T00:14:03.461Z,3.10
2023-01-20T00:16:34.554Z,3.90
2023-01-20T00:19:01.265Z,3.40
2023-01-20T00:21:28.832Z,2.90
2023-01-20T00:23:56.193Z,3.30
2023-01-20T00:26:24.591Z,3.50
2023-01-20T00:28:55.154Z,4.00
2023-01-20T00:31:24.045Z,4.60
2023-01-20T00:33:52.878Z,4.50
2023-01-20T00:36:20.905Z,4.80
2023-01-20T00:38:48.121Z,5.10
2023-01-20T00:41:15.855Z,4.60
2023-01-20T00:43:43.104Z,4.70
2023-01-20T00:46:11.458Z,4.10
2023-01-20T00:48:38.918Z,4.50
2023-01-20T00:51:07.151Z,4.50
2023-01-20T00:53:33.798Z,3.90
2023-01-20T00:56:00.732Z,4.50
2023-01-20T00:58:28.521Z,4.20
2023-01-20T01:00:56.129Z,4.40
2023-01-20T01:03:23.141Z,4.20
2023-01-20T01:05:49.767Z,4.50
2023-01-20T01:08:16.848Z,4.50
2023-01-20T01:10:43.566Z,4.20
2023-01-20T01:13:11.199Z,4.20
2023-01-20T01:15:37.927Z,4.40
2023-01-20T01:18:04.735Z,4.60
2023-01-20T01:20:31.790Z,4.20
2023-01-20T01:22:58.374Z,4.30
2023-01-20T01:25:24.965Z,4.20
2023-01-20T01:27:51.568Z,4.30
2023-01-20T01:30:18.269Z,3.80
2023-01-20T01:32:44.913Z,4.40
2023-01-20T01:35:11.840Z,3.80
2023-01-20T01:37:38.924Z,4.00
2023-01-20T01:40:06.593Z,4.30
2023-01-20T01:42:33.266Z,4.40
2023-01-20T01:45:12.650Z,4.20
2023-01-20T01:48:25.995Z,3.90
2023-01-20T01:51:20.241Z,3.80
2023-01-20T01:53:54.068Z,4.10
2023-01-20T01:56:27.386Z,3.80
2023-01-20T01:58:58.848Z,3.40
2023-01-20T02:01:27.226Z,3.60
2023-01-20T02:04:00.904Z,3.90
2023-01-20T02:06:32.927Z,3.60
2023-01-20T02:09:04.170Z,3.70
2023-01-20T02:11:41.738Z,3.70
2023-01-20T02:14:08.781Z,3.90
2023-01-20T02:16:41.368Z,3.80
2023-01-20T02:19:56.342Z,3.70
2023-01-20T02:22:32.875Z,3.70
2023-01-20T02:25:16.147Z,3.70
2023-01-20T02:28:15.928Z,3.60
2023-01-20T02:31:07.644Z,3.30
2023-01-20T02:33:59.019Z,3.40
2023-01-20T02:36:47.323Z,3.20
2023-01-20T02:39:27.350Z,3.80
2023-01-20T02:42:13.226Z,3.30
2023-01-20T02:45:16.175Z,3.40
2023-01-20T02:47:59.246Z,3.30
2023-01-20T02:50:36.127Z,3.60
2023-01-20T02:53:04.904Z,3.60
2023-01-20T02:55:40.733Z,3.40
2023-01-20T02:58:14.335Z,3.30
2023-01-20T03:01:07.614Z,3.20
2023-01-20T03:03:39.136Z,3.00
2023-01-20T03:06:13.825Z,3.00
2023-01-20T03:08:41.326Z,3.20
2023-01-20T03:11:09.287Z,3.70
2023-01-20T03:13:50.499Z,3.40
2023-01-20T03:16:23.718Z,3.20
2023-01-20T03:18:51.852Z,3.20
2023-01-20T03:21:19.222Z,3.00
2023-01-20T03:23:50.052Z,3.40
2023-01-20T03:26:19.754Z,3.00
2023-01-20T03:28:48.973Z,2.70
2023-01-20T03:31:44.831Z,3.00
2023-01-20T03:34:18.323Z,3.10
2023-01-20T03:36:45.948Z,2.80
2023-01-20T03:39:13.199Z,2.90
2023-01-20T03:42:07.304Z,3.00
2023-01-20T03:45:06.868Z,2.90
2023-01-20T03:47:48.758Z,3.30
2023-01-20T03:50:21.965Z,2.70
2023-01-20T03:53:31.507Z,3.00
2023-01-20T03:56:17.035Z,3.00
2023-01-20T03:58:50.195Z,2.90
2023-01-20T04:01:21.450Z,2.40
2023-01-20T04:03:53.173Z,3.20
2023-01-20T04:06:23.818Z,3.20
2023-01-20T04:09:03.399Z,3.70
2023-01-20T04:11:30.164Z,3.30
2023-01-20T04:13:56.936Z,2.60
2023-01-20T04:16:25.594Z,2.90
2023-01-20T04:18:53.293Z,3.10
2023-01-20T04:21:35.753Z,3.10
2023-01-20T04:24:24.278Z,3.70
2023-01-20T04:26:51.867Z,2.90
2023-01-20T04:29:18.865Z,3.80
2023-01-20T04:31:45.563Z,2.90
2023-01-20T04:34:15.792Z,3.20
2023-01-20T04:36:42.945Z,3.60
2023-01-20T04:39:10.209Z,3.60
2023-01-20T04:41:36.840Z,3.60
2023-01-20T04:44:03.450Z,4.10
2023-01-20T04:46:30.049Z,4.20
2023-01-20T04:48:56.697Z,4.20
2023-01-20T04:51:23.477Z,4.20
2023-01-20T04:53:50.247Z,4.70
2023-01-20T04:56:16.808Z,4.80
2023-01-20T04:58:43.741Z,5.30
2023-01-20T05:01:10.422Z,4.80
2023-01-20T05:03:38.334Z,5.30
2023-01-20T05:06:06.491Z,4.80
2023-01-20T05:08:33.586Z,5.10
2023-01-20T05:11:00.124Z,4.90
2023-01-20T05:13:26.710Z,5.10
2023-01-20T05:15:53.414Z,5.30
2023-01-20T05:18:20.028Z,5.60
2023-01-20T05:20:48.632Z,5.50
2023-01-20T05:23:17.048Z,5.80
2023-01-20T05:25:50.880Z,5.80
2023-01-20T05:28:17.400Z,5.70
2023-01-20T05:30:44.126Z,6.10
2023-01-20T05:33:11.365Z,5.90
2023-01-20T05:35:38.972Z,6.00
2023-01-20T05:38:05.663Z,6.20
2023-01-20T05:40:32.556Z,5.50
2023-01-20T05:43:00.903Z,6.00
2023-01-20T05:45:27.906Z,5.70
2023-01-20T05:47:56.617Z,5.80
2023-01-20T05:50:24.645Z,6.50
2023-01-20T05:52:51.518Z,5.80
2023-01-20T05:55:18.873Z,2.60
2023-01-20T05:57:45.658Z,4.50
2023-01-20T06:00:15.089Z,4.80
2023-01-20T06:02:41.843Z,4.80
2023-01-20T06:05:08.774Z,3.80
2023-01-20T06:07:35.479Z,4.40
2023-01-20T06:10:02.700Z,3.30
2023-01-20T06:12:29.431Z,2.40
2023-01-20T06:14:56.018Z,2.90
2023-01-20T06:17:22.854Z,3.40
2023-01-20T06:19:49.452Z,3.30
2023-01-20T06:22:16.165Z,4.20
2023-01-20T06:24:42.766Z,4.30
2023-01-20T06:27:10.889Z,4.20
2023-01-20T06:29:39.189Z,4.20
2023-01-20T06:32:06.357Z,3.90
2023-01-20T06:34:32.958Z,4.20
2023-01-20T06:36:59.650Z,4.40
2023-01-20T06:39:26.254Z,4.20
2023-01-20T06:41:53.040Z,4.40
2023-01-20T06:44:19.655Z,4.60
2023-01-20T06:46:48.181Z,4.60
2023-01-20T06:49:15.563Z,3.80
2023-01-20T06:51:42.137Z,4.40
2023-01-20T06:54:08.942Z,4.00
2023-01-20T06:56:35.630Z,4.80
2023-01-20T06:59:02.420Z,4.10
2023-01-20T07:01:31.096Z,3.60
2023-01-20T07:03:58.157Z,4.40
2023-01-20T07:06:24.610Z,4.40
2023-01-20T07:08:51.657Z,4.00
2023-01-20T07:11:18.601Z,3.90
2023-01-20T07:13:45.361Z,5.30
2023-01-20T07:16:15.434Z,2.90
2023-01-20T07:18:44.198Z,4.90
2023-01-20T07:21:12.270Z,2.30
2023-01-20T07:23:39.147Z,4.40
2023-01-20T07:26:12.651Z,5.00
2023-01-20T07:28:39.589Z,5.00
2023-01-20T07:31:08.917Z,3.60
2023-01-20T07:33:36.238Z,5.00
2023-01-20T07:36:04.519Z,6.10
2023-01-20T07:38:31.367Z,6.00
2023-01-20T07:41:05.118Z,4.60
2023-01-20T07:43:33.203Z,6.50
2023-01-20T07:46:03.105Z,6.20
2023-01-20T07:48:32.136Z,6.10
2023-01-20T07:51:02.981Z,6.10
2023-01-20T07:53:31.547Z,6.20
2023-01-20T07:56:02.515Z,6.20
2023-01-20T07:58:29.936Z,6.30
2023-01-20T08:00:56.673Z,5.40
2023-01-20T08:03:27.356Z,5.60
2023-01-20T08:05:54.098Z,6.20
2023-01-20T08:08:20.707Z,6.10
2023-01-20T08:10:54.546Z,5.70
2023-01-20T08:13:22.200Z,5.20
2023-01-20T08:15:48.808Z,6.70
2023-01-20T08:18:15.451Z,6.00
2023-01-20T08:20:42.739Z,5.10
2023-01-20T08:23:09.300Z,7.40
2023-01-20T08:25:35.961Z,5.50
2023-01-20T08:28:04.814Z,5.10
2023-01-20T08:30:32.080Z,6.40
2023-01-20T08:32:58.800Z,4.90
2023-01-20T08:35:25.476Z,5.40
2023-01-20T08:37:52.242Z,5.20
2023-01-20T08:40:19.048Z,6.70
2023-01-20T08:42:45.899Z,5.10
2023-01-20T08:45:12.947Z,5.90
2023-01-20T08:47:46.104Z,6.00
2023-01-20T08:50:15.094Z,6.00
2023-01-20T08:52:42.424Z,5.40
2023-01-20T08:55:10.550Z,5.60
2023-01-20T08:57:37.577Z,4.80
2023-01-20T09:00:09.108Z,5.40
2023-01-20T09:02:38.005Z,5.60
2023-01-20T09:05:05.776Z,11.00
2023-01-20T09:07:32.537Z,9.60
2023-01-20T09:09:59.138Z,5.50
2023-01-20T09:12:25.782Z,5.50
2023-01-20T09:14:52.864Z,6.10
2023-01-20T09:17:19.605Z,5.60
2023-01-20T09:19:46.278Z,6.70
2023-01-20T09:22:13.087Z,6.50
2023-01-20T09:24:40.468Z,5.40
2023-01-20T09:27:07.070Z,5.70
2023-01-20T09:29:34.877Z,5.50
2023-01-20T09:32:01.710Z,7.10
2023-01-20T09:34:30.687Z,5.60
2023-01-20T09:37:20.088Z,5.60
2023-01-20T09:40:06.591Z,5.00
2023-01-20T09:43:23.421Z,6.10
2023-01-20T09:45:57.353Z,5.00
2023-01-20T09:49:13.592Z,4.80
2023-01-20T09:52:16.840Z,4.60
2023-01-20T09:55:15.529Z,4.00
2023-01-20T09:57:49.186Z,4.50
2023-01-20T10:00:22.061Z,4.00
2023-01-20T10:02:57.812Z,4.00
2023-01-20T10:05:33.034Z,4.50
2023-01-20T10:08:17.466Z,4.30
2023-01-20T10:11:03.740Z,4.70
2023-01-20T10:14:10.445Z,4.30
2023-01-20T10:16:48.341Z,4.00
2023-01-20T10:19:34.549Z,4.70
2023-01-20T10:22:13.532Z,4.80
2023-01-20T10:25:06.405Z,3.60
2023-01-20T10:27:37.279Z,3.10
2023-01-20T10:30:13.410Z,3.80
2023-01-20T10:33:00.878Z,3.90
2023-01-20T10:35:31.836Z,3.30
2023-01-20T10:37:58.978Z,3.50
2023-01-20T10:40:37.043Z,2.80
2023-01-20T10:43:13.709Z,2.60
2023-01-20T10:46:17.531Z,3.00
2023-01-20T10:49:34.001Z,2.10
2023-01-20T10:52:25.739Z,2.60
2023-01-20T10:55:27.721Z,2.20
2023-01-20T10:58:12.457Z,3.50
2023-01-20T11:00:39.770Z,2.70
2023-01-20T11:03:11.038Z,2.90
2023-01-20T11:05:38.641Z,3.20
2023-01-20T11:08:17.971Z,2.90
2023-01-20T11:10:47.670Z,3.40
2023-01-20T11:13:14.353Z,3.00
2023-01-20T11:15:48.709Z,3.50
2023-01-20T11:18:15.368Z,3.40
2023-01-20T11:20:57.351Z,3.00
2023-01-20T11:23:38.240Z,2.60
2023-01-20T11:26:23.055Z,3.10
2023-01-20T11:29:05.711Z,3.00
2023-01-20T11:31:53.750Z,2.70
2023-01-20T11:34:31.913Z,2.90
2023-01-20T11:37:04.642Z,3.30
2023-01-20T11:39:49.399Z,3.30
2023-01-20T11:42:24.800Z,3.90
2023-01-20T11:44:55.282Z,3.90
2023-01-20T11:47:26.739Z,3.70
2023-01-20T11:50:17.316Z,3.30
2023-01-20T11:52:48.755Z,4.10
2023-01-20T11:55:23.448Z,4.30
2023-01-20T11:58:02.974Z,3.60
2023-01-20T12:00:37.287Z,3.30
2023-01-20T12:03:33.303Z,3.60
2023-01-20T12:06:34.736Z,4.40
2023-01-20T12:09:15.122Z,4.10
2023-01-20T12:11:58.365Z,4.00
2023-01-20T12:14:47.668Z,4.80
2023-01-20T12:17:22.249Z,3.80
2023-01-20T12:20:22.124Z,4.20
2023-01-20T12:23:32.019Z,3.10
2023-01-20T12:26:05.421Z,4.90
2023-01-20T12:29:04.293Z,6.10
2023-01-20T12:31:32.243Z,6.20
2023-01-20T12:34:06.276Z,5.90
2023-01-20T12:36:51.037Z,6.10
2023-01-20T12:39:42.680Z,6.00
2023-01-20T12:42:25.874Z,6.60
2023-01-20T12:45:37.407Z,6.50
2023-01-20T12:48:31.247Z,5.70
2023-01-20T12:51:34.889Z,7.40
2023-01-20T12:54:42.969Z,7.00
2023-01-20T12:58:13.003Z,8.60
2023-01-20T13:00:59.899Z,13.70
2023-01-20T13:03:55.362Z,8.60
2023-01-20T13:07:00.712Z,7.30
2023-01-20T13:10:11.385Z,7.30
2023-01-20T13:12:56.822Z,7.90
2023-01-20T13:15:46.406Z,7.30
2023-01-20T13:18:29.886Z,7.40
2023-01-20T13:20:56.819Z,5.40
2023-01-20T13:23:28.582Z,6.70
2023-01-20T13:25:56.079Z,6.80
2023-01-20T13:28:28.204Z,7.00
2023-01-20T13:31:00.358Z,6.40
2023-01-20T13:33:40.668Z,7.30
2023-01-20T13:36:16.217Z,9.20
2023-01-20T13:38:43.693Z,6.70
2023-01-20T13:41:11.265Z,7.20
2023-01-20T13:43:44.067Z,5.00
2023-01-20T13:46:18.011Z,6.20
2023-01-20T13:49:22.785Z,6.70
2023-01-20T13:51:50.095Z,6.40
2023-01-20T13:54:23.017Z,7.60
2023-01-20T13:56:49.666Z,10.20
2023-01-20T13:59:16.579Z,11.10
2023-01-20T14:01:43.906Z,9.10
2023-01-20T14:04:26.202Z,8.10
2023-01-20T14:06:54.983Z,8.50
2023-01-20T14:09:25.210Z,8.70
2023-01-20T14:11:57.266Z,9.60
2023-01-20T14:14:26.717Z,9.70
2023-01-20T14:16:54.561Z,8.50
2023-01-20T14:19:33.143Z,7.60
2023-01-20T14:22:18.035Z,6.80
2023-01-20T14:24:48.042Z,8.50
2023-01-20T14:27:23.599Z,8.40
2023-01-20T14:29:53.210Z,8.40
2023-01-20T14:32:33.947Z,6.70
2023-01-20T14:35:02.556Z,5.40
2023-01-20T14:37:38.155Z,8.60
2023-01-20T14:40:31.138Z,5.50
2023-01-20T14:43:22.673Z,5.70
2023-01-20T14:45:52.207Z,7.80
2023-01-20T14:48:33.235Z,6.10
2023-01-20T14:51:02.636Z,8.60
2023-01-20T14:53:29.468Z,9.30
2023-01-20T14:56:03.810Z,8.70
2023-01-20T14:58:31.211Z,9.40
2023-01-20T15:01:02.756Z,9.20
2023-01-20T15:03:31.017Z,10.80
2023-01-20T15:06:12.159Z,9.90
2023-01-20T15:08:38.635Z,7.90
2023-01-20T15:11:14.257Z,7.50
2023-01-20T15:13:43.549Z,7.70
2023-01-20T15:16:13.716Z,7.40
2023-01-20T15:18:40.419Z,8.70
2023-01-20T15:21:27.418Z,9.30
2023-01-20T15:23:54.236Z,5.80
2023-01-20T15:26:30.502Z,8.30
2023-01-20T15:28:58.541Z,7.40
2023-01-20T15:31:26.511Z,8.00
2023-01-20T15:33:53.257Z,8.60
2023-01-20T15:36:28.506Z,8.80
2023-01-20T15:38:55.883Z,8.50
2023-01-20T15:41:22.685Z,7.80
2023-01-20T15:43:51.348Z,8.80
2023-01-20T15:46:19.444Z,7.40
2023-01-20T15:48:46.865Z,7.90
2023-01-20T15:51:17.044Z,7.60
2023-01-20T15:53:44.991Z,8.70
2023-01-20T15:56:27.153Z,7.10
2023-01-20T15:58:54.552Z,6.40
2023-01-20T16:01:25.133Z,9.20
2023-01-20T16:03:54.959Z,8.40
2023-01-20T16:06:27.919Z,9.30
2023-01-20T16:08:54.546Z,7.90
2023-01-20T16:11:21.080Z,9.50
2023-01-20T16:13:47.927Z,8.70
2023-01-20T16:16:21.110Z,4.60
2023-01-20T16:18:48.762Z,7.50
2023-01-20T16:21:18.679Z,8.50
2023-01-20T16:23:45.608Z,9.40
2023-01-20T16:26:26.174Z,10.80
2023-01-20T16:28:58.418Z,9.70
2023-01-20T16:31:27.462Z,7.40
2023-01-20T16:33:55.391Z,7.20
2023-01-20T16:36:23.757Z,8.60
2023-01-20T16:38:51.613Z,8.20
2023-01-20T16:41:25.893Z,4.80
2023-01-20T16:43:54.862Z,7.50
2023-01-20T16:46:25.295Z,8.70
2023-01-20T16:48:54.305Z,8.30
2023-01-20T16:51:25.420Z,5.70
2023-01-20T16:53:53.143Z,7.50
2023-01-20T16:56:23.084Z,7.60
2023-01-20T16:58:52.340Z,7.60
2023-01-20T17:01:23.606Z,6.40
2023-01-20T17:04:08.433Z,6.10
2023-01-20T17:06:35.229Z,5.80
2023-01-20T17:09:05.118Z,5.50
2023-01-20T17:11:36.905Z,8.10
2023-01-20T17:14:10.135Z,8.10
2023-01-20T17:16:37.891Z,7.60
2023-01-20T17:19:05.835Z,6.00
2023-01-20T17:21:37.757Z,7.00
2023-01-20T17:24:06.361Z,7.00
2023-01-20T17:26:34.271Z,9.30
2023-01-20T17:29:03.393Z,6.90
2023-01-20T17:31:36.517Z,6.40
2023-01-20T17:34:04.968Z,8.60
2023-01-20T17:36:34.780Z,6.20
2023-01-20T17:39:03.359Z,6.50
2023-01-20T17:41:30.066Z,8.60
2023-01-20T17:43:56.668Z,7.60
2023-01-20T17:46:29.710Z,6.30
2023-01-20T17:48:58.047Z,6.70
2023-01-20T17:51:27.565Z,7.70
2023-01-20T17:53:54.499Z,7.90
2023-01-20T17:56:22.880Z,6.50
2023-01-20T17:58:50.293Z,6.60
2023-01-20T18:01:27.336Z,8.40
2023-01-20T18:03:56.385Z,9.40
2023-01-20T18:06:25.340Z,6.70
2023-01-20T18:08:59.216Z,6.20
2023-01-20T18:11:29.110Z,6.80
2023-01-20T18:13:58.785Z,8.50
2023-01-20T18:16:30.916Z,6.60
2023-01-20T18:19:01.278Z,8.90
2023-01-20T18:21:32.801Z,5.80
2023-01-20T18:24:02.384Z,8.00
2023-01-20T18:26:32.751Z,8.60
2023-01-20T18:29:04.564Z,8.30
2023-01-20T18:31:33.541Z,7.20
2023-01-20T18:34:04.887Z,7.90
2023-01-20T18:36:35.649Z,7.70
2023-01-20T18:39:07.800Z,8.10
2023-01-20T18:41:37.860Z,6.70
2023-01-20T18:44:05.482Z,6.90
2023-01-20T18:46:33.061Z,7.60
2023-01-20T18:49:00.617Z,7.60
2023-01-20T18:51:29.993Z,7.40
2023-01-20T18:54:07.437Z,8.20
2023-01-20T18:56:35.145Z,7.50
2023-01-20T18:59:03.895Z,6.20
2023-01-20T19:01:34.933Z,5.80
2023-01-20T19:04:04.137Z,6.60
2023-01-20T19:06:36.869Z,7.90
2023-01-20T19:09:04.654Z,6.50
2023-01-20T19:11:36.071Z,7.50
2023-01-20T19:14:03.133Z,7.30
2023-01-20T19:16:33.989Z,8.60
2023-01-20T19:19:03.544Z,7.40
2023-01-20T19:21:32.444Z,6.30
2023-01-20T19:24:02.969Z,6.30
2023-01-20T19:26:29.648Z,6.10
2023-01-20T19:29:02.599Z,6.80
2023-01-20T19:31:36.112Z,7.10
2023-01-20T19:34:03.787Z,8.40
2023-01-20T19:36:30.859Z,6.90
2023-01-20T19:38:58.652Z,8.70
2023-01-20T19:41:31.976Z,7.60
2023-01-20T19:44:01.342Z,7.60
2023-01-20T19:46:31.367Z,6.30
2023-01-20T19:48:59.599Z,6.10
2023-01-20T19:51:27.044Z,9.20
2023-01-20T19:53:58.053Z,8.30
2023-01-20T19:56:27.721Z,8.90
2023-01-20T19:58:55.548Z,6.90
2023-01-20T20:01:26.224Z,5.50
2023-01-20T20:03:56.715Z,6.30
2023-01-20T20:06:36.622Z,8.60
2023-01-20T20:09:11.651Z,7.50
2023-01-20T20:11:38.955Z,7.70
2023-01-20T20:14:07.893Z,7.20
2023-01-20T20:16:36.915Z,6.90
2023-01-20T20:19:05.074Z,6.40
2023-01-20T20:21:32.000Z,5.20
2023-01-20T20:24:01.407Z,6.40
2023-01-20T20:26:32.091Z,5.70
2023-01-20T20:29:00.644Z,6.70
2023-01-20T20:31:31.276Z,5.50
2023-01-20T20:34:00.057Z,5.70
2023-01-20T20:36:29.597Z,7.40
2023-01-20T20:38:58.850Z,5.60
2023-01-20T20:41:28.881Z,4.90
2023-01-20T20:44:00.927Z,6.00
2023-01-20T20:46:29.387Z,7.50
2023-01-20T20:49:02.170Z,6.20
2023-01-20T20:51:32.465Z,7.90
2023-01-20T20:54:01.483Z,5.40
2023-01-20T20:56:32.757Z,8.10
2023-01-20T20:59:03.062Z,6.80
2023-01-20T21:01:33.037Z,6.60
2023-01-20T21:04:00.765Z,6.20
2023-01-20T21:06:29.296Z,5.50
2023-01-20T21:08:57.064Z,8.70
2023-01-20T21:11:24.868Z,6.70
2023-01-20T21:13:52.602Z,8.90
2023-01-20T21:16:23.137Z,7.80
2023-01-20T21:18:53.157Z,6.70
2023-01-20T21:21:20.259Z,7.00
2023-01-20T21:23:53.240Z,5.50
2023-01-20T21:26:20.318Z,7.90
2023-01-20T21:28:49.276Z,6.50
2023-01-20T21:31:22.668Z,8.10
2023-01-20T21:33:56.992Z,5.70
2023-01-20T21:36:25.254Z,5.00
2023-01-20T21:38:51.991Z,5.50
2023-01-20T21:41:19.481Z,5.50
2023-01-20T21:44:06.343Z,5.20
2023-01-20T21:46:39.778Z,6.10
2023-01-20T21:49:26.664Z,6.10
2023-01-20T21:52:13.759Z,5.40
2023-01-20T21:54:41.267Z,7.00
2023-01-20T21:57:08.118Z,6.10
2023-01-20T21:59:34.771Z,7.10
2023-01-20T22:02:01.470Z,7.80
2023-01-20T22:04:28.371Z,6.10
2023-01-20T22:06:55.083Z,5.10
2023-01-20T22:09:21.689Z,5.80
2023-01-20T22:11:49.225Z,7.50
2023-01-20T22:14:15.932Z,7.10
2023-01-20T22:16:42.640Z,6.20
2023-01-20T22:19:13.541Z,7.10
2023-01-20T22:21:40.436Z,5.60
2023-01-20T22:24:07.581Z,6.10
2023-01-20T22:26:34.371Z,6.60
2023-01-20T22:29:01.090Z,7.40
2023-01-20T22:31:28.616Z,7.30
2023-01-20T22:33:57.932Z,7.40
2023-01-20T22:36:25.288Z,6.70
2023-01-20T22:38:53.463Z,5.60
2023-01-20T22:41:21.356Z,6.50
2023-01-20T22:43:50.004Z,5.90
2023-01-20T22:46:19.182Z,5.30
2023-01-20T22:48:46.821Z,6.20
2023-01-20T22:51:26.011Z,5.90
2023-01-20T22:53:54.552Z,6.00
2023-01-20T22:56:27.784Z,6.50
2023-01-20T22:58:56.642Z,7.00
2023-01-20T23:01:27.923Z,5.90
2023-01-20T23:04:05.918Z,5.40
2023-01-20T23:06:35.998Z,6.60
2023-01-20T23:09:08.112Z,8.10
2023-01-20T23:11:38.035Z,5.20
2023-01-20T23:14:05.299Z,6.40
2023-01-20T23:16:32.087Z,6.70
2023-01-20T23:18:58.813Z,8.10
2023-01-20T23:21:25.986Z,7.80
2023-01-20T23:23:54.889Z,7.00
2023-01-20T23:26:25.646Z,8.10
2023-01-20T23:28:53.843Z,8.50
2023-01-20T23:31:23.615Z,6.20
2023-01-20T23:33:50.744Z,8.30
2023-01-20T23:36:21.792Z,7.50
2023-01-20T23:38:48.563Z,6.00
2023-01-20T23:41:16.177Z,7.20
2023-01-20T23:43:43.061Z,7.50
2023-01-20T23:46:10.462Z,6.70
2023-01-20T23:48:38.183Z,7.30
2023-01-20T23:51:06.573Z,6.10
2023-01-20T23:53:37.803Z,6.80
2023-01-20T23:56:21.387Z,6.60
2023-01-20T23:58:48.543Z,7.60
